sensor_id;sensor_type;location;lat;lon;timestamp;pressure;altitude;pressure_sealevel;temperature;humidity
16451;BME280;12243;42.708;23.310;2023-08-12T00:01:45;95581.53;;;19.68;75.22
16451;BME280;12243;42.708;23.310;2023-08-12T00:04:12;95580.38;;;19.70;75.19
16451;BME280;12243;42.708;23.310;2023-08-12T00:06:40;95566.31;;;19.62;74.42
16451;BME280;12243;42.708;23.310;2023-08-12T00:09:07;95572.28;;;19.64;74.82
16451;BME280;12243;42.708;23.310;2023-08-12T00:11:34;95571.97;;;19.67;74.61
16451;BME280;12243;42.708;23.310;2023-08-12T00:14:01;95578.22;;;19.66;75.01
16451;BME280;12243;42.708;23.310;2023-08-12T00:16:28;95575.25;;;19.69;73.93
16451;BME280;12243;42.708;23.310;2023-08-12T00:18:56;95571.44;;;19.71;74.52
16451;BME280;12243;42.708;23.310;2023-08-12T00:21:24;95582.16;;;19.78;73.03
16451;BME280;12243;42.708;23.310;2023-08-12T00:23:51;95570.25;;;19.82;72.50
16451;BME280;12243;42.708;23.310;2023-08-12T00:26:18;95570.97;;;19.68;72.01
16451;BME280;12243;42.708;23.310;2023-08-12T00:28:45;95564.69;;;19.61;71.88
16451;BME280;12243;42.708;23.310;2023-08-12T00:31:12;95570.47;;;19.48;72.62
16451;BME280;12243;42.708;23.310;2023-08-12T00:33:39;95571.84;;;19.36;72.60
16451;BME280;12243;42.708;23.310;2023-08-12T00:36:07;95570.03;;;19.28;73.24
16451;BME280;12243;42.708;23.310;2023-08-12T00:38:34;95565.44;;;19.14;73.19
16451;BME280;12243;42.708;23.310;2023-08-12T00:41:01;95567.91;;;19.07;74.67
16451;BME280;12243;42.708;23.310;2023-08-12T00:43:28;95574.88;;;19.08;75.13
16451;BME280;12243;42.708;23.310;2023-08-12T00:45:55;95567.13;;;18.98;74.48
16451;BME280;12243;42.708;23.310;2023-08-12T00:48:22;95576.66;;;18.99;74.74
16451;BME280;12243;42.708;23.310;2023-08-12T00:50:49;95560.84;;;18.99;74.64
16451;BME280;12243;42.708;23.310;2023-08-12T00:53:18;95562.13;;;19.03;75.83
16451;BME280;12243;42.708;23.310;2023-08-12T00:55:45;95561.81;;;19.07;74.56
16451;BME280;12243;42.708;23.310;2023-08-12T00:58:12;95553.34;;;19.27;75.10
16451;BME280;12243;42.708;23.310;2023-08-12T01:00:40;95559.63;;;19.35;74.35
16451;BME280;12243;42.708;23.310;2023-08-12T01:03:07;95559.25;;;19.54;73.29
16451;BME280;12243;42.708;23.310;2023-08-12T01:05:34;95558.09;;;19.57;72.53
16451;BME280;12243;42.708;23.310;2023-08-12T01:08:01;95556.09;;;19.67;72.40
16451;BME280;12243;42.708;23.310;2023-08-12T01:10:33;95559.72;;;19.74;71.79
16451;BME280;12243;42.708;23.310;2023-08-12T01:13:08;95555.44;;;19.65;72.30
16451;BME280;12243;42.708;23.310;2023-08-12T01:15:38;95557.75;;;19.68;73.33
16451;BME280;12243;42.708;23.310;2023-08-12T01:18:10;95547.13;;;19.84;72.79
16451;BME280;12243;42.708;23.310;2023-08-12T01:20:38;95550.38;;;19.94;71.84
16451;BME280;12243;42.708;23.310;2023-08-12T01:23:11;95547.34;;;19.97;71.09
16451;BME280;12243;42.708;23.310;2023-08-12T01:25:39;95555.28;;;19.97;71.48
16451;BME280;12243;42.708;23.310;2023-08-12T01:28:06;95552.16;;;20.02;70.27
16451;BME280;12243;42.708;23.310;2023-08-12T01:30:34;95558.25;;;20.03;70.50
16451;BME280;12243;42.708;23.310;2023-08-12T01:33:08;95548.69;;;19.93;70.05
16451;BME280;12243;42.708;23.310;2023-08-12T01:35:41;95551.13;;;19.72;70.93
16451;BME280;12243;42.708;23.310;2023-08-12T01:38:11;95551.50;;;19.52;71.54
16451;BME280;12243;42.708;23.310;2023-08-12T01:40:39;95550.16;;;19.48;71.42
16451;BME280;12243;42.708;23.310;2023-08-12T01:43:07;95540.44;;;19.41;70.53
16451;BME280;12243;42.708;23.310;2023-08-12T01:45:35;95551.22;;;19.23;71.98
16451;BME280;12243;42.708;23.310;2023-08-12T01:48:03;95555.22;;;19.19;72.87
16451;BME280;12243;42.708;23.310;2023-08-12T01:50:30;95557.19;;;19.17;72.37
16451;BME280;12243;42.708;23.310;2023-08-12T01:52:57;95549.94;;;19.19;73.04
16451;BME280;12243;42.708;23.310;2023-08-12T01:55:25;95544.94;;;19.24;73.22
16451;BME280;12243;42.708;23.310;2023-08-12T01:57:52;95554.53;;;19.25;73.74
16451;BME280;12243;42.708;23.310;2023-08-12T02:00:19;95551.69;;;19.35;74.56
16451;BME280;12243;42.708;23.310;2023-08-12T02:02:46;95553.81;;;19.47;74.40
16451;BME280;12243;42.708;23.310;2023-08-12T02:05:14;95553.75;;;19.72;72.99
16451;BME280;12243;42.708;23.310;2023-08-12T02:07:41;95565.25;;;19.87;71.87
16451;BME280;12243;42.708;23.310;2023-08-12T02:10:09;95556.34;;;19.88;70.36
16451;BME280;12243;42.708;23.310;2023-08-12T02:12:38;95558.53;;;19.77;70.12
16451;BME280;12243;42.708;23.310;2023-08-12T02:15:06;95552.41;;;19.76;71.49
16451;BME280;12243;42.708;23.310;2023-08-12T02:17:33;95545.78;;;19.88;71.53
16451;BME280;12243;42.708;23.310;2023-08-12T02:19:59;95547.00;;;20.09;70.56
16451;BME280;12243;42.708;23.310;2023-08-12T02:22:26;95544.84;;;20.04;69.34
16451;BME280;12243;42.708;23.310;2023-08-12T02:24:54;95546.28;;;20.15;69.94
16451;BME280;12243;42.708;23.310;2023-08-12T02:27:21;95548.88;;;20.23;69.67
16451;BME280;12243;42.708;23.310;2023-08-12T02:29:49;95554.78;;;20.33;69.35
16451;BME280;12243;42.708;23.310;2023-08-12T02:32:16;95556.41;;;20.34;69.41
16451;BME280;12243;42.708;23.310;2023-08-12T02:34:45;95548.13;;;20.37;69.13
16451;BME280;12243;42.708;23.310;2023-08-12T02:37:11;95556.34;;;20.42;68.67
16451;BME280;12243;42.708;23.310;2023-08-12T02:39:39;95551.06;;;20.42;68.21
16451;BME280;12243;42.708;23.310;2023-08-12T02:42:06;95551.72;;;20.44;68.15
16451;BME280;12243;42.708;23.310;2023-08-12T02:44:32;95557.78;;;20.30;67.45
16451;BME280;12243;42.708;23.310;2023-08-12T02:47:01;95555.91;;;20.08;68.71
16451;BME280;12243;42.708;23.310;2023-08-12T02:49:28;95560.22;;;20.01;68.79
16451;BME280;12243;42.708;23.310;2023-08-12T02:51:54;95561.44;;;19.98;69.67
16451;BME280;12243;42.708;23.310;2023-08-12T02:54:21;95569.22;;;19.91;70.29
16451;BME280;12243;42.708;23.310;2023-08-12T02:56:49;95568.75;;;19.80;70.56
16451;BME280;12243;42.708;23.310;2023-08-12T02:59:16;95569.22;;;19.83;70.20
16451;BME280;12243;42.708;23.310;2023-08-12T03:01:43;95565.34;;;19.71;69.59
16451;BME280;12243;42.708;23.310;2023-08-12T03:04:11;95558.09;;;19.57;68.96
16451;BME280;12243;42.708;23.310;2023-08-12T03:06:38;95573.34;;;19.30;71.67
16451;BME280;12243;42.708;23.310;2023-08-12T03:09:05;95569.41;;;19.18;72.99
16451;BME280;12243;42.708;23.310;2023-08-12T03:11:32;95573.03;;;19.17;73.34
16451;BME280;12243;42.708;23.310;2023-08-12T03:14:01;95572.38;;;19.23;71.81
16451;BME280;12243;42.708;23.310;2023-08-12T03:16:28;95575.81;;;19.23;72.65
16451;BME280;12243;42.708;23.310;2023-08-12T03:18:56;95572.19;;;19.24;72.78
16451;BME280;12243;42.708;23.310;2023-08-12T03:21:24;95575.66;;;19.25;72.80
16451;BME280;12243;42.708;23.310;2023-08-12T03:23:51;95576.31;;;19.35;71.53
16451;BME280;12243;42.708;23.310;2023-08-12T03:26:18;95567.38;;;19.28;71.26
16451;BME280;12243;42.708;23.310;2023-08-12T03:28:46;95568.72;;;19.24;71.11
16451;BME280;12243;42.708;23.310;2023-08-12T03:31:16;95567.25;;;19.13;72.56
16451;BME280;12243;42.708;23.310;2023-08-12T03:33:44;95577.31;;;19.10;73.07
16451;BME280;12243;42.708;23.310;2023-08-12T03:36:12;95579.97;;;19.18;71.81
16451;BME280;12243;42.708;23.310;2023-08-12T03:38:40;95574.66;;;19.26;72.60
16451;BME280;12243;42.708;23.310;2023-08-12T03:41:11;95590.16;;;19.37;73.14
16451;BME280;12243;42.708;23.310;2023-08-12T03:43:39;95582.50;;;19.59;72.80
16451;BME280;12243;42.708;23.310;2023-08-12T03:46:06;95576.56;;;19.65;71.18
16451;BME280;12243;42.708;23.310;2023-08-12T03:48:33;95583.00;;;19.62;69.69
16451;BME280;12243;42.708;23.310;2023-08-12T03:51:00;95582.00;;;19.71;71.17
16451;BME280;12243;42.708;23.310;2023-08-12T03:53:27;95582.84;;;19.72;69.23
16451;BME280;12243;42.708;23.310;2023-08-12T03:55:56;95588.13;;;19.72;70.49
16451;BME280;12243;42.708;23.310;2023-08-12T03:58:23;95585.47;;;19.72;70.93
16451;BME280;12243;42.708;23.310;2023-08-12T04:00:50;95591.91;;;19.78;71.01
16451;BME280;12243;42.708;23.310;2023-08-12T04:03:17;95585.84;;;20.00;70.32
16451;BME280;12243;42.708;23.310;2023-08-12T04:05:48;95585.47;;;20.42;68.66
16451;BME280;12243;42.708;23.310;2023-08-12T04:08:19;95583.22;;;20.85;67.02
16451;BME280;12243;42.708;23.310;2023-08-12T04:10:46;95583.78;;;21.33;64.96
16451;BME280;12243;42.708;23.310;2023-08-12T04:13:15;95583.13;;;21.69;63.62
16451;BME280;12243;42.708;23.310;2023-08-12T04:15:42;95590.03;;;22.00;62.15
16451;BME280;12243;42.708;23.310;2023-08-12T04:18:09;95591.22;;;22.27;61.05
16451;BME280;12243;42.708;23.310;2023-08-12T04:20:37;95593.44;;;22.45;59.85
16451;BME280;12243;42.708;23.310;2023-08-12T04:23:03;95599.03;;;22.50;59.82
16451;BME280;12243;42.708;23.310;2023-08-12T04:25:30;95589.06;;;22.73;58.86
16451;BME280;12243;42.708;23.310;2023-08-12T04:27:58;95593.09;;;22.91;58.27
16451;BME280;12243;42.708;23.310;2023-08-12T04:30:26;95588.81;;;22.68;57.05
16451;BME280;12243;42.708;23.310;2023-08-12T04:32:54;95600.88;;;22.49;58.40
16451;BME280;12243;42.708;23.310;2023-08-12T04:35:22;95601.88;;;22.48;59.36
16451;BME280;12243;42.708;23.310;2023-08-12T04:37:49;95596.97;;;22.67;58.54
16451;BME280;12243;42.708;23.310;2023-08-12T04:40:17;95598.91;;;22.58;58.09
16451;BME280;12243;42.708;23.310;2023-08-12T04:42:45;95589.31;;;22.78;58.03
16451;BME280;12243;42.708;23.310;2023-08-12T04:45:13;95601.91;;;23.13;56.99
16451;BME280;12243;42.708;23.310;2023-08-12T04:47:41;95597.38;;;23.35;56.04
16451;BME280;12243;42.708;23.310;2023-08-12T04:50:11;95596.34;;;23.36;55.99
16451;BME280;12243;42.708;23.310;2023-08-12T04:52:38;95596.22;;;23.44;55.78
16451;BME280;12243;42.708;23.310;2023-08-12T04:55:05;95595.91;;;23.32;55.54
16451;BME280;12243;42.708;23.310;2023-08-12T04:57:32;95598.72;;;23.24;55.90
16451;BME280;12243;42.708;23.310;2023-08-12T04:59:59;95600.38;;;23.25;55.57
16451;BME280;12243;42.708;23.310;2023-08-12T05:02:25;95599.28;;;23.41;55.74
16451;BME280;12243;42.708;23.310;2023-08-12T05:04:54;95602.78;;;23.69;54.95
16451;BME280;12243;42.708;23.310;2023-08-12T05:07:21;95598.06;;;24.06;54.73
16451;BME280;12243;42.708;23.310;2023-08-12T05:09:48;95597.44;;;24.52;52.93
16451;BME280;12243;42.708;23.310;2023-08-12T05:12:15;95596.91;;;24.90;51.83
16451;BME280;12243;42.708;23.310;2023-08-12T05:14:42;95603.31;;;25.15;51.16
16451;BME280;12243;42.708;23.310;2023-08-12T05:17:09;95603.53;;;25.34;50.14
16451;BME280;12243;42.708;23.310;2023-08-12T05:19:35;95605.16;;;25.41;50.10
16451;BME280;12243;42.708;23.310;2023-08-12T05:22:04;95605.53;;;25.78;49.14
16451;BME280;12243;42.708;23.310;2023-08-12T05:24:32;95612.72;;;25.78;48.51
16451;BME280;12243;42.708;23.310;2023-08-12T05:26:59;95614.41;;;25.26;49.98
16451;BME280;12243;42.708;23.310;2023-08-12T05:29:26;95605.19;;;25.35;49.70
16451;BME280;12243;42.708;23.310;2023-08-12T05:31:53;95611.94;;;25.57;49.61
16451;BME280;12243;42.708;23.310;2023-08-12T05:34:19;95611.09;;;25.17;49.59
16451;BME280;12243;42.708;23.310;2023-08-12T05:36:46;95615.44;;;25.25;50.45
16451;BME280;12243;42.708;23.310;2023-08-12T05:39:14;95611.25;;;24.76;50.77
16451;BME280;12243;42.708;23.310;2023-08-12T05:41:41;95615.38;;;24.37;51.31
16451;BME280;12243;42.708;23.310;2023-08-12T05:44:08;95621.41;;;24.52;50.89
16451;BME280;12243;42.708;23.310;2023-08-12T05:46:35;95615.78;;;24.27;51.91
16451;BME280;12243;42.708;23.310;2023-08-12T05:49:03;95614.28;;;24.59;51.97
16451;BME280;12243;42.708;23.310;2023-08-12T05:51:30;95619.25;;;24.95;50.61
16451;BME280;12243;42.708;23.310;2023-08-12T05:53:57;95610.03;;;24.98;50.04
16451;BME280;12243;42.708;23.310;2023-08-12T05:56:26;95615.97;;;24.87;50.80
16451;BME280;12243;42.708;23.310;2023-08-12T05:58:53;95612.91;;;25.10;50.89
16451;BME280;12243;42.708;23.310;2023-08-12T06:01:19;95604.97;;;25.30;49.34
16451;BME280;12243;42.708;23.310;2023-08-12T06:03:46;95607.03;;;25.14;49.52
16451;BME280;12243;42.708;23.310;2023-08-12T06:06:13;95597.91;;;24.82;50.15
16451;BME280;12243;42.708;23.310;2023-08-12T06:08:40;95598.75;;;24.89;50.10
16451;BME280;12243;42.708;23.310;2023-08-12T06:11:07;95599.78;;;24.95;50.28
16451;BME280;12243;42.708;23.310;2023-08-12T06:13:35;95594.22;;;24.77;50.64
16451;BME280;12243;42.708;23.310;2023-08-12T06:16:02;95592.19;;;24.85;50.90
16451;BME280;12243;42.708;23.310;2023-08-12T06:18:30;95584.75;;;24.54;50.85
16451;BME280;12243;42.708;23.310;2023-08-12T06:20:56;95590.28;;;24.59;50.70
16451;BME280;12243;42.708;23.310;2023-08-12T06:23:23;95591.22;;;24.32;51.48
16451;BME280;12243;42.708;23.310;2023-08-12T06:25:50;95591.28;;;24.45;51.45
16451;BME280;12243;42.708;23.310;2023-08-12T06:28:17;95593.41;;;24.76;51.16
16451;BME280;12243;42.708;23.310;2023-08-12T06:30:46;95593.16;;;24.64;51.02
16451;BME280;12243;42.708;23.310;2023-08-12T06:33:13;95587.69;;;25.06;50.41
16451;BME280;12243;42.708;23.310;2023-08-12T06:35:41;95585.22;;;25.71;49.37
16451;BME280;12243;42.708;23.310;2023-08-12T06:38:07;95574.56;;;25.71;48.31
16451;BME280;12243;42.708;23.310;2023-08-12T06:40:35;95578.69;;;25.66;48.43
16451;BME280;12243;42.708;23.310;2023-08-12T06:43:02;95572.25;;;25.94;47.58
16451;BME280;12243;42.708;23.310;2023-08-12T06:45:29;95572.13;;;26.27;46.18
16451;BME280;12243;42.708;23.310;2023-08-12T06:47:57;95572.72;;;26.36;45.40
16451;BME280;12243;42.708;23.310;2023-08-12T06:50:24;95571.19;;;26.08;46.01
16451;BME280;12243;42.708;23.310;2023-08-12T06:52:51;95571.91;;;25.84;46.83
16451;BME280;12243;42.708;23.310;2023-08-12T06:55:17;95576.44;;;25.63;47.71
16451;BME280;12243;42.708;23.310;2023-08-12T06:57:45;95572.06;;;25.96;47.27
16451;BME280;12243;42.708;23.310;2023-08-12T07:00:12;95566.75;;;25.82;47.38
16451;BME280;12243;42.708;23.310;2023-08-12T07:02:39;95566.50;;;25.90;47.08
16451;BME280;12243;42.708;23.310;2023-08-12T07:05:09;95566.50;;;25.97;46.60
16451;BME280;12243;42.708;23.310;2023-08-12T07:07:36;95563.00;;;25.97;46.76
16451;BME280;12243;42.708;23.310;2023-08-12T07:10:03;95556.69;;;25.78;47.35
16451;BME280;12243;42.708;23.310;2023-08-12T07:12:31;95561.56;;;25.94;46.97
16451;BME280;12243;42.708;23.310;2023-08-12T07:14:59;95564.53;;;26.31;45.89
16451;BME280;12243;42.708;23.310;2023-08-12T07:17:26;95566.09;;;26.45;44.86
16451;BME280;12243;42.708;23.310;2023-08-12T07:19:53;95567.31;;;26.49;45.12
16451;BME280;12243;42.708;23.310;2023-08-12T07:22:21;95558.72;;;26.47;44.60
16451;BME280;12243;42.708;23.310;2023-08-12T07:24:48;95559.50;;;26.54;43.91
16451;BME280;12243;42.708;23.310;2023-08-12T07:27:15;95575.63;;;26.73;43.51
16451;BME280;12243;42.708;23.310;2023-08-12T07:29:42;95575.91;;;26.65;43.72
16451;BME280;12243;42.708;23.310;2023-08-12T07:32:08;95556.56;;;26.63;43.73
16451;BME280;12243;42.708;23.310;2023-08-12T07:34:35;95563.03;;;26.48;43.77
16451;BME280;12243;42.708;23.310;2023-08-12T07:37:02;95567.69;;;26.59;44.00
16451;BME280;12243;42.708;23.310;2023-08-12T07:39:30;95563.91;;;26.74;43.23
16451;BME280;12243;42.708;23.310;2023-08-12T07:41:57;95554.72;;;26.18;44.91
16451;BME280;12243;42.708;23.310;2023-08-12T07:44:24;95545.28;;;26.22;45.47
16451;BME280;12243;42.708;23.310;2023-08-12T07:46:51;95551.84;;;26.65;45.26
16451;BME280;12243;42.708;23.310;2023-08-12T07:49:18;95549.56;;;26.68;44.02
16451;BME280;12243;42.708;23.310;2023-08-12T07:51:45;95545.53;;;26.52;44.31
16451;BME280;12243;42.708;23.310;2023-08-12T07:54:12;95541.50;;;26.36;44.50
16451;BME280;12243;42.708;23.310;2023-08-12T07:56:40;95537.13;;;26.42;44.91
16451;BME280;12243;42.708;23.310;2023-08-12T07:59:07;95534.75;;;26.66;43.88
16451;BME280;12243;42.708;23.310;2023-08-12T08:01:33;95542.44;;;26.87;42.91
16451;BME280;12243;42.708;23.310;2023-08-12T08:04:00;95536.66;;;26.90;42.42
16451;BME280;12243;42.708;23.310;2023-08-12T08:06:27;95538.72;;;26.88;42.17
16451;BME280;12243;42.708;23.310;2023-08-12T08:08:54;95535.72;;;26.78;41.90
16451;BME280;12243;42.708;23.310;2023-08-12T08:11:24;95531.81;;;26.74;42.69
16451;BME280;12243;42.708;23.310;2023-08-12T08:13:52;95538.94;;;27.12;42.90
16451;BME280;12243;42.708;23.310;2023-08-12T08:16:19;95530.06;;;27.43;42.30
16451;BME280;12243;42.708;23.310;2023-08-12T08:18:46;95531.50;;;27.64;41.02
16451;BME280;12243;42.708;23.310;2023-08-12T08:21:12;95531.53;;;28.00;40.48
16451;BME280;12243;42.708;23.310;2023-08-12T08:23:40;95532.16;;;28.33;40.46
16451;BME280;12243;42.708;23.310;2023-08-12T08:26:08;95531.47;;;28.37;39.65
16451;BME280;12243;42.708;23.310;2023-08-12T08:28:34;95533.91;;;28.09;40.09
16451;BME280;12243;42.708;23.310;2023-08-12T08:31:03;95531.69;;;27.87;39.86
16451;BME280;12243;42.708;23.310;2023-08-12T08:33:30;95528.03;;;28.00;40.46
16451;BME280;12243;42.708;23.310;2023-08-12T08:35:56;95518.25;;;28.42;39.57
16451;BME280;12243;42.708;23.310;2023-08-12T08:38:23;95519.13;;;28.36;39.33
16451;BME280;12243;42.708;23.310;2023-08-12T08:40:50;95520.59;;;28.51;39.43
16451;BME280;12243;42.708;23.310;2023-08-12T08:43:20;95513.22;;;28.76;38.64
16451;BME280;12243;42.708;23.310;2023-08-12T08:45:49;95510.81;;;28.98;38.55
16451;BME280;12243;42.708;23.310;2023-08-12T08:48:17;95508.19;;;29.33;37.40
16451;BME280;12243;42.708;23.310;2023-08-12T08:50:45;95503.53;;;29.40;36.93
16451;BME280;12243;42.708;23.310;2023-08-12T08:53:14;95506.75;;;29.42;36.41
16451;BME280;12243;42.708;23.310;2023-08-12T08:55:42;95510.97;;;29.74;36.98
16451;BME280;12243;42.708;23.310;2023-08-12T08:58:10;95502.44;;;29.88;36.01
16451;BME280;12243;42.708;23.310;2023-08-12T09:00:37;95503.41;;;30.11;35.56
16451;BME280;12243;42.708;23.310;2023-08-12T09:03:05;95506.06;;;30.34;35.32
16451;BME280;12243;42.708;23.310;2023-08-12T09:05:35;95502.56;;;30.51;35.53
16451;BME280;12243;42.708;23.310;2023-08-12T09:08:05;95495.47;;;30.73;34.73
16451;BME280;12243;42.708;23.310;2023-08-12T09:10:36;95496.75;;;30.71;34.38
16451;BME280;12243;42.708;23.310;2023-08-12T09:13:06;95496.94;;;30.35;35.15
16451;BME280;12243;42.708;23.310;2023-08-12T09:15:34;95495.44;;;30.16;34.63
16451;BME280;12243;42.708;23.310;2023-08-12T09:18:01;95488.72;;;30.02;35.40
16451;BME280;12243;42.708;23.310;2023-08-12T09:20:28;95487.94;;;29.89;35.84
16451;BME280;12243;42.708;23.310;2023-08-12T09:22:59;95490.84;;;30.00;35.10
16451;BME280;12243;42.708;23.310;2023-08-12T09:25:26;95485.66;;;30.10;35.58
16451;BME280;12243;42.708;23.310;2023-08-12T09:27:55;95479.25;;;30.11;35.52
16451;BME280;12243;42.708;23.310;2023-08-12T09:30:22;95483.78;;;30.22;35.32
16451;BME280;12243;42.708;23.310;2023-08-12T09:32:58;95481.31;;;30.49;35.45
16451;BME280;12243;42.708;23.310;2023-08-12T09:35:32;95475.50;;;30.69;34.84
16451;BME280;12243;42.708;23.310;2023-08-12T09:38:02;95471.00;;;30.75;34.76
16451;BME280;12243;42.708;23.310;2023-08-12T09:40:30;95465.41;;;30.76;34.44
16451;BME280;12243;42.708;23.310;2023-08-12T09:42:57;95458.22;;;30.65;33.77
16451;BME280;12243;42.708;23.310;2023-08-12T09:45:25;95461.06;;;30.58;34.29
16451;BME280;12243;42.708;23.310;2023-08-12T09:47:52;95454.66;;;30.76;34.52
16451;BME280;12243;42.708;23.310;2023-08-12T09:50:21;95464.03;;;31.07;34.18
16451;BME280;12243;42.708;23.310;2023-08-12T09:52:47;95457.53;;;30.87;33.38
16451;BME280;12243;42.708;23.310;2023-08-12T09:55:17;95453.28;;;30.91;32.94
16451;BME280;12243;42.708;23.310;2023-08-12T09:57:48;95449.03;;;30.78;33.07
16451;BME280;12243;42.708;23.310;2023-08-12T10:00:16;95447.03;;;30.56;33.80
16451;BME280;12243;42.708;23.310;2023-08-12T10:02:44;95445.78;;;30.76;34.16
16451;BME280;12243;42.708;23.310;2023-08-12T10:05:16;95441.34;;;30.70;33.61
16451;BME280;12243;42.708;23.310;2023-08-12T10:07:45;95440.75;;;30.34;33.89
16451;BME280;12243;42.708;23.310;2023-08-12T10:10:12;95438.84;;;30.06;34.68
16451;BME280;12243;42.708;23.310;2023-08-12T10:12:41;95432.59;;;30.17;34.68
16451;BME280;12243;42.708;23.310;2023-08-12T10:15:09;95438.47;;;30.59;33.64
16451;BME280;12243;42.708;23.310;2023-08-12T10:17:36;95429.66;;;30.76;34.14
16451;BME280;12243;42.708;23.310;2023-08-12T10:20:05;95425.94;;;30.99;34.03
16451;BME280;12243;42.708;23.310;2023-08-12T10:22:34;95429.44;;;31.16;33.75
16451;BME280;12243;42.708;23.310;2023-08-12T10:25:02;95424.53;;;31.13;32.99
16451;BME280;12243;42.708;23.310;2023-08-12T10:27:29;95430.06;;;31.23;32.75
16451;BME280;12243;42.708;23.310;2023-08-12T10:29:57;95422.56;;;31.42;32.74
16451;BME280;12243;42.708;23.310;2023-08-12T10:32:24;95427.16;;;31.64;31.60
16451;BME280;12243;42.708;23.310;2023-08-12T10:34:55;95418.69;;;31.55;31.75
16451;BME280;12243;42.708;23.310;2023-08-12T10:37:23;95416.25;;;31.31;32.15
16451;BME280;12243;42.708;23.310;2023-08-12T10:39:51;95417.72;;;30.55;32.85
16451;BME280;12243;42.708;23.310;2023-08-12T10:42:39;95415.63;;;30.28;33.52
16451;BME280;12243;42.708;23.310;2023-08-12T10:45:08;95403.16;;;30.22;33.30
16451;BME280;12243;42.708;23.310;2023-08-12T10:47:40;95396.81;;;30.28;33.33
16451;BME280;12243;42.708;23.310;2023-08-12T10:50:17;95404.91;;;30.62;33.56
16451;BME280;12243;42.708;23.310;2023-08-12T10:52:44;95404.50;;;30.70;33.06
16451;BME280;12243;42.708;23.310;2023-08-12T10:55:19;95399.47;;;30.91;32.29
16451;BME280;12243;42.708;23.310;2023-08-12T10:57:46;95402.41;;;30.89;33.12
16451;BME280;12243;42.708;23.310;2023-08-12T11:00:15;95395.50;;;31.32;32.29
16451;BME280;12243;42.708;23.310;2023-08-12T11:02:48;95391.63;;;31.67;31.82
16451;BME280;12243;42.708;23.310;2023-08-12T11:05:15;95383.28;;;32.12;31.40
16451;BME280;12243;42.708;23.310;2023-08-12T11:07:45;95379.03;;;32.48;30.44
16451;BME280;12243;42.708;23.310;2023-08-12T11:10:14;95377.28;;;32.96;30.50
16451;BME280;12243;42.708;23.310;2023-08-12T11:12:48;95372.28;;;33.20;29.25
16451;BME280;12243;42.708;23.310;2023-08-12T11:15:16;95382.34;;;33.30;28.69
16451;BME280;12243;42.708;23.310;2023-08-12T11:17:46;95373.59;;;32.81;28.13
16451;BME280;12243;42.708;23.310;2023-08-12T11:20:13;95373.66;;;32.48;27.30
16451;BME280;12243;42.708;23.310;2023-08-12T11:22:41;95379.81;;;32.17;27.62
16451;BME280;12243;42.708;23.310;2023-08-12T11:25:09;95370.41;;;31.92;27.91
16451;BME280;12243;42.708;23.310;2023-08-12T11:27:38;95380.47;;;32.02;27.69
16451;BME280;12243;42.708;23.310;2023-08-12T11:30:06;95371.34;;;32.35;26.65
16451;BME280;12243;42.708;23.310;2023-08-12T11:32:34;95368.72;;;32.72;27.22
16451;BME280;12243;42.708;23.310;2023-08-12T11:35:02;95368.19;;;33.13;27.35
16451;BME280;12243;42.708;23.310;2023-08-12T11:37:31;95364.41;;;33.14;26.43
16451;BME280;12243;42.708;23.310;2023-08-12T11:39:58;95363.56;;;33.56;26.50
16451;BME280;12243;42.708;23.310;2023-08-12T11:42:25;95360.69;;;33.20;27.03
16451;BME280;12243;42.708;23.310;2023-08-12T11:44:52;95365.84;;;32.89;26.35
16451;BME280;12243;42.708;23.310;2023-08-12T11:47:19;95359.72;;;32.62;28.57
16451;BME280;12243;42.708;23.310;2023-08-12T11:49:47;95357.75;;;32.25;28.76
16451;BME280;12243;42.708;23.310;2023-08-12T11:52:14;95361.84;;;32.28;28.76
16451;BME280;12243;42.708;23.310;2023-08-12T11:54:41;95351.97;;;32.11;29.16
16451;BME280;12243;42.708;23.310;2023-08-12T11:57:08;95351.41;;;32.36;28.16
16451;BME280;12243;42.708;23.310;2023-08-12T11:59:36;95354.03;;;32.58;28.32
16451;BME280;12243;42.708;23.310;2023-08-12T12:02:04;95349.31;;;32.76;27.98
16451;BME280;12243;42.708;23.310;2023-08-12T12:04:31;95344.09;;;33.01;27.55
16451;BME280;12243;42.708;23.310;2023-08-12T12:06:59;95349.06;;;33.19;27.46
16451;BME280;12243;42.708;23.310;2023-08-12T12:09:31;95347.69;;;32.75;27.95
16451;BME280;12243;42.708;23.310;2023-08-12T12:11:59;95343.03;;;33.02;27.98
16451;BME280;12243;42.708;23.310;2023-08-12T12:14:26;95339.38;;;32.86;27.89
16451;BME280;12243;42.708;23.310;2023-08-12T12:16:53;95347.63;;;32.64;27.78
16451;BME280;12243;42.708;23.310;2023-08-12T12:19:22;95348.53;;;31.89;28.92
16451;BME280;12243;42.708;23.310;2023-08-12T12:21:50;95340.56;;;31.11;30.15
16451;BME280;12243;42.708;23.310;2023-08-12T12:24:19;95344.38;;;30.43;31.01
16451;BME280;12243;42.708;23.310;2023-08-12T12:26:46;95337.88;;;29.93;31.82
16451;BME280;12243;42.708;23.310;2023-08-12T12:29:13;95344.97;;;30.16;31.57
16451;BME280;12243;42.708;23.310;2023-08-12T12:31:41;95342.16;;;30.40;32.08
16451;BME280;12243;42.708;23.310;2023-08-12T12:34:08;95338.19;;;30.25;32.88
16451;BME280;12243;42.708;23.310;2023-08-12T12:36:37;95328.16;;;30.21;32.72
16451;BME280;12243;42.708;23.310;2023-08-12T12:39:04;95337.84;;;30.72;32.02
16451;BME280;12243;42.708;23.310;2023-08-12T12:41:33;95329.44;;;31.24;31.05
16451;BME280;12243;42.708;23.310;2023-08-12T12:44:00;95325.56;;;31.59;30.29
16451;BME280;12243;42.708;23.310;2023-08-12T12:46:27;95328.81;;;31.61;30.30
16451;BME280;12243;42.708;23.310;2023-08-12T12:48:54;95319.50;;;31.25;30.54
16451;BME280;12243;42.708;23.310;2023-08-12T12:51:21;95325.13;;;30.68;31.05
16451;BME280;12243;42.708;23.310;2023-08-12T12:53:48;95319.69;;;30.46;31.58